Terminal Aerodrome Forecast
Issued by NWS

Home | Current Version | Previous Version | Text Only | Print | Product List | Glossary On
Versions: 1 2 3 4 5 6 7 8 9 10 11 12 13 14 15 16 17 18 19
999
FTUS43 KAPX 191720
TAFPLN
TAF
KPLN 191720Z 1918/2018 22013KT P6SM BKN110 WS010/22035KT
     FM200500 25014KT P6SM BKN020 WS010/24040KT
     FM200700 25013KT P6SM BKN120 WS010/26035KT
     FM200900 26010KT P6SM BKN120
     FM201200 27009KT P6SM SCT020 BKN120=

USA.gov is the U.S. government's official web portal to all federal, state and local government web resources and services.